sensor_id;sensor_type;location;lat;lon;timestamp;temperature;humidity
33793;DHT22;20105;48.764;9.178;2022-11-21T00:00:29;5.50;99.90
33793;DHT22;20105;48.764;9.178;2022-11-21T00:02:59;5.50;99.90
33793;DHT22;20105;48.764;9.178;2022-11-21T00:05:26;5.50;99.90
33793;DHT22;20105;48.764;9.178;2022-11-21T00:07:53;5.50;99.90
33793;DHT22;20105;48.764;9.178;2022-11-21T00:10:18;5.60;99.90
33793;DHT22;20105;48.764;9.178;2022-11-21T00:12:44;5.60;99.90
33793;DHT22;20105;48.764;9.178;2022-11-21T00:15:09;5.60;99.90
33793;DHT22;20105;48.764;9.178;2022-11-21T00:17:35;5.60;99.90
33793;DHT22;20105;48.764;9.178;2022-11-21T00:20:01;5.50;99.90
33793;DHT22;20105;48.764;9.178;2022-11-21T00:22:26;5.50;99.90
33793;DHT22;20105;48.764;9.178;2022-11-21T00:24:52;5.40;99.90
33793;DHT22;20105;48.764;9.178;2022-11-21T00:27:17;5.30;99.90
33793;DHT22;20105;48.764;9.178;2022-11-21T00:29:43;5.20;99.90
33793;DHT22;20105;48.764;9.178;2022-11-21T00:32:08;5.20;99.90
33793;DHT22;20105;48.764;9.178;2022-11-21T00:34:34;5.20;99.90
33793;DHT22;20105;48.764;9.178;2022-11-21T00:36:59;5.20;99.90
33793;DHT22;20105;48.764;9.178;2022-11-21T00:39:25;5.10;99.90
33793;DHT22;20105;48.764;9.178;2022-11-21T00:41:50;5.10;99.90
33793;DHT22;20105;48.764;9.178;2022-11-21T00:44:16;5.10;99.90
33793;DHT22;20105;48.764;9.178;2022-11-21T00:46:41;5.00;99.90
33793;DHT22;20105;48.764;9.178;2022-11-21T00:49:07;5.00;99.90
33793;DHT22;20105;48.764;9.178;2022-11-21T00:51:33;5.00;99.90
33793;DHT22;20105;48.764;9.178;2022-11-21T00:53:58;4.90;99.90
33793;DHT22;20105;48.764;9.178;2022-11-21T00:56:24;4.90;99.90
33793;DHT22;20105;48.764;9.178;2022-11-21T00:58:49;4.80;99.90
33793;DHT22;20105;48.764;9.178;2022-11-21T01:01:15;4.80;99.90
33793;DHT22;20105;48.764;9.178;2022-11-21T01:03:41;4.70;99.90
33793;DHT22;20105;48.764;9.178;2022-11-21T01:06:09;4.70;99.90
33793;DHT22;20105;48.764;9.178;2022-11-21T01:08:37;4.70;99.90
33793;DHT22;20105;48.764;9.178;2022-11-21T01:11:04;4.70;99.90
33793;DHT22;20105;48.764;9.178;2022-11-21T01:13:30;4.70;99.90
33793;DHT22;20105;48.764;9.178;2022-11-21T01:15:55;4.80;99.90
33793;DHT22;20105;48.764;9.178;2022-11-21T01:18:21;4.90;99.90
33793;DHT22;20105;48.764;9.178;2022-11-21T01:20:46;4.90;99.90
33793;DHT22;20105;48.764;9.178;2022-11-21T01:23:12;4.90;99.90
33793;DHT22;20105;48.764;9.178;2022-11-21T01:25:37;4.80;99.90
33793;DHT22;20105;48.764;9.178;2022-11-21T01:28:03;4.80;99.90
33793;DHT22;20105;48.764;9.178;2022-11-21T01:30:28;4.80;99.90
33793;DHT22;20105;48.764;9.178;2022-11-21T01:32:54;4.80;99.90
33793;DHT22;20105;48.764;9.178;2022-11-21T01:35:19;4.90;99.90
33793;DHT22;20105;48.764;9.178;2022-11-21T01:37:46;4.90;99.90
33793;DHT22;20105;48.764;9.178;2022-11-21T01:40:13;5.00;99.90
33793;DHT22;20105;48.764;9.178;2022-11-21T01:45:53;5.00;99.90
33793;DHT22;20105;48.764;9.178;2022-11-21T01:51:27;4.80;99.90
33793;DHT22;20105;48.764;9.178;2022-11-21T01:56:45;4.70;99.90
33793;DHT22;20105;48.764;9.178;2022-11-21T01:59:18;4.70;99.90
33793;DHT22;20105;48.764;9.178;2022-11-21T02:01:46;4.70;99.90
33793;DHT22;20105;48.764;9.178;2022-11-21T02:04:13;4.70;99.90
33793;DHT22;20105;48.764;9.178;2022-11-21T02:06:40;4.70;99.90
33793;DHT22;20105;48.764;9.178;2022-11-21T02:09:06;4.60;99.90
33793;DHT22;20105;48.764;9.178;2022-11-21T02:11:37;4.70;99.90
33793;DHT22;20105;48.764;9.178;2022-11-21T02:14:04;4.60;99.90
33793;DHT22;20105;48.764;9.178;2022-11-21T02:16:30;4.70;99.90
33793;DHT22;20105;48.764;9.178;2022-11-21T02:18:55;4.70;99.90
33793;DHT22;20105;48.764;9.178;2022-11-21T02:21:42;4.70;99.90
33793;DHT22;20105;48.764;9.178;2022-11-21T02:24:32;4.70;99.90
33793;DHT22;20105;48.764;9.178;2022-11-21T02:27:01;4.70;99.90
33793;DHT22;20105;48.764;9.178;2022-11-21T02:29:27;4.70;99.90
33793;DHT22;20105;48.764;9.178;2022-11-21T02:31:52;4.50;99.90
33793;DHT22;20105;48.764;9.178;2022-11-21T02:34:18;4.50;99.90
33793;DHT22;20105;48.764;9.178;2022-11-21T02:36:45;4.50;99.90
33793;DHT22;20105;48.764;9.178;2022-11-21T02:39:24;4.60;99.90
33793;DHT22;20105;48.764;9.178;2022-11-21T02:41:57;4.60;99.90
33793;DHT22;20105;48.764;9.178;2022-11-21T02:44:37;4.60;99.90
33793;DHT22;20105;48.764;9.178;2022-11-21T02:47:04;4.60;99.90
33793;DHT22;20105;48.764;9.178;2022-11-21T02:49:37;4.50;99.90
33793;DHT22;20105;48.764;9.178;2022-11-21T02:52:04;4.50;99.90
33793;DHT22;20105;48.764;9.178;2022-11-21T02:54:29;4.60;99.90
33793;DHT22;20105;48.764;9.178;2022-11-21T02:56:55;4.60;99.90
33793;DHT22;20105;48.764;9.178;2022-11-21T02:59:21;4.60;99.90
33793;DHT22;20105;48.764;9.178;2022-11-21T03:01:47;4.60;99.90
33793;DHT22;20105;48.764;9.178;2022-11-21T03:04:13;4.70;99.90
33793;DHT22;20105;48.764;9.178;2022-11-21T03:06:38;4.70;99.90
33793;DHT22;20105;48.764;9.178;2022-11-21T03:09:05;4.60;99.90
33793;DHT22;20105;48.764;9.178;2022-11-21T03:11:30;4.60;99.90
33793;DHT22;20105;48.764;9.178;2022-11-21T03:13:56;4.60;99.90
33793;DHT22;20105;48.764;9.178;2022-11-21T03:16:21;4.60;99.90
33793;DHT22;20105;48.764;9.178;2022-11-21T03:18:47;4.60;99.90
33793;DHT22;20105;48.764;9.178;2022-11-21T03:21:13;4.60;99.90
33793;DHT22;20105;48.764;9.178;2022-11-21T03:23:38;4.60;99.90
33793;DHT22;20105;48.764;9.178;2022-11-21T03:26:04;4.60;99.90
33793;DHT22;20105;48.764;9.178;2022-11-21T03:28:29;4.60;99.90
33793;DHT22;20105;48.764;9.178;2022-11-21T03:30:55;4.60;99.90
33793;DHT22;20105;48.764;9.178;2022-11-21T03:33:20;4.60;99.90
33793;DHT22;20105;48.764;9.178;2022-11-21T03:35:46;4.60;99.90
33793;DHT22;20105;48.764;9.178;2022-11-21T03:38:12;4.60;99.90
33793;DHT22;20105;48.764;9.178;2022-11-21T03:40:37;4.60;99.90
33793;DHT22;20105;48.764;9.178;2022-11-21T03:43:04;4.70;99.90
33793;DHT22;20105;48.764;9.178;2022-11-21T03:45:30;4.70;99.90
33793;DHT22;20105;48.764;9.178;2022-11-21T03:47:56;4.80;99.90
33793;DHT22;20105;48.764;9.178;2022-11-21T03:50:21;4.80;99.90
33793;DHT22;20105;48.764;9.178;2022-11-21T03:52:47;4.80;99.90
33793;DHT22;20105;48.764;9.178;2022-11-21T03:55:12;4.90;99.90
33793;DHT22;20105;48.764;9.178;2022-11-21T03:57:39;4.90;99.90
33793;DHT22;20105;48.764;9.178;2022-11-21T04:00:05;4.90;99.90
33793;DHT22;20105;48.764;9.178;2022-11-21T04:02:31;4.90;99.90
33793;DHT22;20105;48.764;9.178;2022-11-21T04:04:56;5.00;99.90
33793;DHT22;20105;48.764;9.178;2022-11-21T04:07:22;5.00;99.90
33793;DHT22;20105;48.764;9.178;2022-11-21T04:09:48;5.00;99.90
33793;DHT22;20105;48.764;9.178;2022-11-21T04:12:13;5.00;99.90
33793;DHT22;20105;48.764;9.178;2022-11-21T04:14:39;5.00;99.90
33793;DHT22;20105;48.764;9.178;2022-11-21T04:17:04;5.00;99.90
33793;DHT22;20105;48.764;9.178;2022-11-21T04:19:30;5.00;99.90
33793;DHT22;20105;48.764;9.178;2022-11-21T04:21:56;5.00;99.90
33793;DHT22;20105;48.764;9.178;2022-11-21T04:24:21;4.90;99.90
33793;DHT22;20105;48.764;9.178;2022-11-21T04:26:47;4.90;99.90
33793;DHT22;20105;48.764;9.178;2022-11-21T04:29:12;4.90;99.90
33793;DHT22;20105;48.764;9.178;2022-11-21T04:31:38;4.90;99.90
33793;DHT22;20105;48.764;9.178;2022-11-21T04:34:03;4.90;99.90
33793;DHT22;20105;48.764;9.178;2022-11-21T04:36:29;5.00;99.90
33793;DHT22;20105;48.764;9.178;2022-11-21T04:38:54;5.00;99.90
33793;DHT22;20105;48.764;9.178;2022-11-21T04:41:20;5.10;99.90
33793;DHT22;20105;48.764;9.178;2022-11-21T04:43:45;5.00;99.90
33793;DHT22;20105;48.764;9.178;2022-11-21T04:46:11;5.00;99.90
33793;DHT22;20105;48.764;9.178;2022-11-21T04:48:37;5.00;99.90
33793;DHT22;20105;48.764;9.178;2022-11-21T04:51:02;5.00;99.90
33793;DHT22;20105;48.764;9.178;2022-11-21T04:53:28;5.00;99.90
33793;DHT22;20105;48.764;9.178;2022-11-21T04:55:53;5.10;99.90
33793;DHT22;20105;48.764;9.178;2022-11-21T04:58:19;5.20;99.90
33793;DHT22;20105;48.764;9.178;2022-11-21T05:00:44;5.20;99.90
33793;DHT22;20105;48.764;9.178;2022-11-21T05:03:10;5.30;99.90
33793;DHT22;20105;48.764;9.178;2022-11-21T05:05:36;5.20;99.90
33793;DHT22;20105;48.764;9.178;2022-11-21T05:08:01;5.20;99.90
33793;DHT22;20105;48.764;9.178;2022-11-21T05:10:27;5.20;99.90
33793;DHT22;20105;48.764;9.178;2022-11-21T05:12:59;5.20;99.90
33793;DHT22;20105;48.764;9.178;2022-11-21T05:15:44;5.20;99.90
33793;DHT22;20105;48.764;9.178;2022-11-21T05:18:10;5.20;99.90
33793;DHT22;20105;48.764;9.178;2022-11-21T05:20:36;5.10;99.90
33793;DHT22;20105;48.764;9.178;2022-11-21T05:23:01;5.10;99.90
33793;DHT22;20105;48.764;9.178;2022-11-21T05:25:27;5.10;99.90
33793;DHT22;20105;48.764;9.178;2022-11-21T05:27:55;5.10;99.90
33793;DHT22;20105;48.764;9.178;2022-11-21T05:30:21;5.10;99.90
33793;DHT22;20105;48.764;9.178;2022-11-21T05:32:46;5.10;99.90
33793;DHT22;20105;48.764;9.178;2022-11-21T05:35:12;5.20;99.90
33793;DHT22;20105;48.764;9.178;2022-11-21T05:37:37;5.20;99.90
33793;DHT22;20105;48.764;9.178;2022-11-21T05:40:03;5.20;99.90
33793;DHT22;20105;48.764;9.178;2022-11-21T05:42:31;5.20;99.90
33793;DHT22;20105;48.764;9.178;2022-11-21T05:45:15;5.20;99.90
33793;DHT22;20105;48.764;9.178;2022-11-21T05:47:41;5.30;99.90
33793;DHT22;20105;48.764;9.178;2022-11-21T05:50:07;5.20;99.90
33793;DHT22;20105;48.764;9.178;2022-11-21T05:52:32;5.30;99.90
33793;DHT22;20105;48.764;9.178;2022-11-21T05:54:58;5.40;99.90
33793;DHT22;20105;48.764;9.178;2022-11-21T05:57:23;5.40;99.90
33793;DHT22;20105;48.764;9.178;2022-11-21T05:59:49;5.30;99.90
33793;DHT22;20105;48.764;9.178;2022-11-21T06:02:15;5.30;99.90
33793;DHT22;20105;48.764;9.178;2022-11-21T06:04:59;5.30;99.90
33793;DHT22;20105;48.764;9.178;2022-11-21T06:07:24;5.40;99.90
33793;DHT22;20105;48.764;9.178;2022-11-21T06:09:50;5.40;99.90
33793;DHT22;20105;48.764;9.178;2022-11-21T06:12:15;5.50;99.90
33793;DHT22;20105;48.764;9.178;2022-11-21T06:14:41;5.40;99.90
33793;DHT22;20105;48.764;9.178;2022-11-21T06:17:06;5.40;99.90
33793;DHT22;20105;48.764;9.178;2022-11-21T06:19:32;5.40;99.90
33793;DHT22;20105;48.764;9.178;2022-11-21T06:21:57;5.40;99.90
33793;DHT22;20105;48.764;9.178;2022-11-21T06:24:23;5.40;99.90
33793;DHT22;20105;48.764;9.178;2022-11-21T06:26:49;5.40;99.90
33793;DHT22;20105;48.764;9.178;2022-11-21T06:29:14;5.40;99.90
33793;DHT22;20105;48.764;9.178;2022-11-21T06:31:41;5.40;99.90
33793;DHT22;20105;48.764;9.178;2022-11-21T06:34:07;5.40;99.90
33793;DHT22;20105;48.764;9.178;2022-11-21T06:36:32;5.40;99.90
33793;DHT22;20105;48.764;9.178;2022-11-21T06:38:59;5.40;99.90
33793;DHT22;20105;48.764;9.178;2022-11-21T06:41:25;5.50;99.90
33793;DHT22;20105;48.764;9.178;2022-11-21T06:43:51;5.50;99.90
33793;DHT22;20105;48.764;9.178;2022-11-21T06:46:17;5.40;99.90
33793;DHT22;20105;48.764;9.178;2022-11-21T06:48:43;5.50;99.90
33793;DHT22;20105;48.764;9.178;2022-11-21T06:51:16;5.50;99.90
33793;DHT22;20105;48.764;9.178;2022-11-21T06:53:42;5.40;99.90
33793;DHT22;20105;48.764;9.178;2022-11-21T06:56:08;5.30;99.90
33793;DHT22;20105;48.764;9.178;2022-11-21T06:58:34;5.30;99.90
33793;DHT22;20105;48.764;9.178;2022-11-21T07:01:07;5.20;99.90
33793;DHT22;20105;48.764;9.178;2022-11-21T07:03:33;5.20;99.90
33793;DHT22;20105;48.764;9.178;2022-11-21T07:06:00;5.10;99.90
33793;DHT22;20105;48.764;9.178;2022-11-21T07:08:29;5.00;99.90
33793;DHT22;20105;48.764;9.178;2022-11-21T07:11:00;5.00;99.90
33793;DHT22;20105;48.764;9.178;2022-11-21T07:13:25;5.00;99.90
33793;DHT22;20105;48.764;9.178;2022-11-21T07:15:54;5.00;99.90
33793;DHT22;20105;48.764;9.178;2022-11-21T07:18:21;5.10;99.90
33793;DHT22;20105;48.764;9.178;2022-11-21T07:20:47;5.00;99.90
33793;DHT22;20105;48.764;9.178;2022-11-21T07:23:13;5.00;99.90
33793;DHT22;20105;48.764;9.178;2022-11-21T07:25:39;5.00;99.90
33793;DHT22;20105;48.764;9.178;2022-11-21T07:28:06;5.10;99.90
33793;DHT22;20105;48.764;9.178;2022-11-21T07:30:32;5.00;99.90
33793;DHT22;20105;48.764;9.178;2022-11-21T07:33:01;5.00;99.90
33793;DHT22;20105;48.764;9.178;2022-11-21T07:35:28;5.00;99.90
33793;DHT22;20105;48.764;9.178;2022-11-21T07:37:54;5.10;99.90
33793;DHT22;20105;48.764;9.178;2022-11-21T07:40:20;5.10;99.90
33793;DHT22;20105;48.764;9.178;2022-11-21T07:42:46;5.10;99.90
33793;DHT22;20105;48.764;9.178;2022-11-21T07:45:13;5.10;99.90
33793;DHT22;20105;48.764;9.178;2022-11-21T07:47:39;5.00;99.90
33793;DHT22;20105;48.764;9.178;2022-11-21T07:50:06;4.90;99.90
33793;DHT22;20105;48.764;9.178;2022-11-21T07:52:32;5.00;99.90
33793;DHT22;20105;48.764;9.178;2022-11-21T07:54:58;4.90;99.90
33793;DHT22;20105;48.764;9.178;2022-11-21T07:57:27;4.90;99.90
33793;DHT22;20105;48.764;9.178;2022-11-21T07:59:52;4.90;99.90
33793;DHT22;20105;48.764;9.178;2022-11-21T08:02:20;5.00;99.90
33793;DHT22;20105;48.764;9.178;2022-11-21T08:04:46;5.00;99.90
33793;DHT22;20105;48.764;9.178;2022-11-21T08:07:13;4.90;99.90
33793;DHT22;20105;48.764;9.178;2022-11-21T08:09:39;5.20;99.90
33793;DHT22;20105;48.764;9.178;2022-11-21T08:12:04;5.10;99.90
33793;DHT22;20105;48.764;9.178;2022-11-21T08:14:30;5.00;99.90
33793;DHT22;20105;48.764;9.178;2022-11-21T08:16:55;5.00;99.90
33793;DHT22;20105;48.764;9.178;2022-11-21T08:19:21;5.00;99.90
33793;DHT22;20105;48.764;9.178;2022-11-21T08:21:46;5.00;99.90
33793;DHT22;20105;48.764;9.178;2022-11-21T08:24:12;5.00;99.90
33793;DHT22;20105;48.764;9.178;2022-11-21T08:26:39;5.00;99.90
33793;DHT22;20105;48.764;9.178;2022-11-21T08:29:05;5.00;99.90
33793;DHT22;20105;48.764;9.178;2022-11-21T08:31:31;5.00;99.90
33793;DHT22;20105;48.764;9.178;2022-11-21T08:33:57;5.10;99.90
33793;DHT22;20105;48.764;9.178;2022-11-21T08:36:23;5.10;99.90
33793;DHT22;20105;48.764;9.178;2022-11-21T08:38:48;5.10;99.90
33793;DHT22;20105;48.764;9.178;2022-11-21T08:41:14;5.10;99.90
33793;DHT22;20105;48.764;9.178;2022-11-21T08:43:58;5.20;99.90
33793;DHT22;20105;48.764;9.178;2022-11-21T08:46:24;5.30;99.90
33793;DHT22;20105;48.764;9.178;2022-11-21T08:48:53;5.40;99.90
33793;DHT22;20105;48.764;9.178;2022-11-21T08:51:19;5.50;99.90
33793;DHT22;20105;48.764;9.178;2022-11-21T08:53:45;5.50;99.90
33793;DHT22;20105;48.764;9.178;2022-11-21T08:56:10;5.50;99.90
33793;DHT22;20105;48.764;9.178;2022-11-21T08:58:36;5.50;99.90
33793;DHT22;20105;48.764;9.178;2022-11-21T09:01:01;5.60;99.90
33793;DHT22;20105;48.764;9.178;2022-11-21T09:03:27;5.60;99.90
33793;DHT22;20105;48.764;9.178;2022-11-21T09:05:58;5.80;99.90
33793;DHT22;20105;48.764;9.178;2022-11-21T09:08:24;5.80;99.90
33793;DHT22;20105;48.764;9.178;2022-11-21T09:10:50;5.90;99.90
33793;DHT22;20105;48.764;9.178;2022-11-21T09:13:15;6.10;99.90
33793;DHT22;20105;48.764;9.178;2022-11-21T09:15:41;6.10;99.90
33793;DHT22;20105;48.764;9.178;2022-11-21T09:18:25;6.20;99.90
33793;DHT22;20105;48.764;9.178;2022-11-21T09:20:51;6.30;99.90
33793;DHT22;20105;48.764;9.178;2022-11-21T09:23:16;6.40;99.90
33793;DHT22;20105;48.764;9.178;2022-11-21T09:25:42;6.40;99.90
33793;DHT22;20105;48.764;9.178;2022-11-21T09:28:09;6.50;99.90
33793;DHT22;20105;48.764;9.178;2022-11-21T09:30:36;6.60;99.90
33793;DHT22;20105;48.764;9.178;2022-11-21T09:33:03;6.60;99.90
33793;DHT22;20105;48.764;9.178;2022-11-21T09:35:29;6.60;99.90
33793;DHT22;20105;48.764;9.178;2022-11-21T09:37:55;6.70;99.90
33793;DHT22;20105;48.764;9.178;2022-11-21T09:40:22;6.80;99.90
33793;DHT22;20105;48.764;9.178;2022-11-21T09:45:25;7.00;99.90
33793;DHT22;20105;48.764;9.178;2022-11-21T09:47:54;7.10;99.90
33793;DHT22;20105;48.764;9.178;2022-11-21T09:50:46;7.20;99.90
33793;DHT22;20105;48.764;9.178;2022-11-21T09:55:57;7.40;99.90
33793;DHT22;20105;48.764;9.178;2022-11-21T09:58:41;7.40;99.90
33793;DHT22;20105;48.764;9.178;2022-11-21T10:01:15;7.30;99.90
33793;DHT22;20105;48.764;9.178;2022-11-21T10:03:50;7.40;99.90
33793;DHT22;20105;48.764;9.178;2022-11-21T10:06:21;7.70;99.90
33793;DHT22;20105;48.764;9.178;2022-11-21T10:11:33;7.90;99.90
33793;DHT22;20105;48.764;9.178;2022-11-21T10:31:48;7.90;99.90
33793;DHT22;20105;48.764;9.178;2022-11-21T10:34:20;8.10;99.90
33793;DHT22;20105;48.764;9.178;2022-11-21T10:36:54;8.00;99.90
33793;DHT22;20105;48.764;9.178;2022-11-21T10:42:40;8.10;99.90
33793;DHT22;20105;48.764;9.178;2022-11-21T10:45:12;8.20;99.90
33793;DHT22;20105;48.764;9.178;2022-11-21T10:47:42;8.10;99.90
33793;DHT22;20105;48.764;9.178;2022-11-21T10:56:05;8.40;99.90
33793;DHT22;20105;48.764;9.178;2022-11-21T10:58:41;8.40;99.90
33793;DHT22;20105;48.764;9.178;2022-11-21T11:03:46;9.00;99.90
33793;DHT22;20105;48.764;9.178;2022-11-21T11:06:12;9.20;99.90
33793;DHT22;20105;48.764;9.178;2022-11-21T11:08:49;9.10;99.90
33793;DHT22;20105;48.764;9.178;2022-11-21T11:11:22;8.70;99.90
33793;DHT22;20105;48.764;9.178;2022-11-21T11:14:11;8.80;99.90
33793;DHT22;20105;48.764;9.178;2022-11-21T11:16:45;8.60;99.90
33793;DHT22;20105;48.764;9.178;2022-11-21T11:31:51;9.30;99.90
33793;DHT22;20105;48.764;9.178;2022-11-21T11:34:17;9.10;99.90
33793;DHT22;20105;48.764;9.178;2022-11-21T11:48:09;9.40;99.90
33793;DHT22;20105;48.764;9.178;2022-11-21T11:51:00;9.00;99.90
33793;DHT22;20105;48.764;9.178;2022-11-21T11:53:35;8.80;99.90
33793;DHT22;20105;48.764;9.178;2022-11-21T11:56:16;8.90;99.90
33793;DHT22;20105;48.764;9.178;2022-11-21T11:58:52;8.90;99.90
33793;DHT22;20105;48.764;9.178;2022-11-21T12:01:38;9.30;99.90
33793;DHT22;20105;48.764;9.178;2022-11-21T12:04:20;9.80;99.90
33793;DHT22;20105;48.764;9.178;2022-11-21T12:07:11;9.80;99.90
33793;DHT22;20105;48.764;9.178;2022-11-21T12:15:14;9.60;99.90
33793;DHT22;20105;48.764;9.178;2022-11-21T12:20:35;9.80;99.40
33793;DHT22;20105;48.764;9.178;2022-11-21T12:23:01;9.60;98.50
33793;DHT22;20105;48.764;9.178;2022-11-21T12:25:35;9.60;99.50
33793;DHT22;20105;48.764;9.178;2022-11-21T12:28:07;9.70;99.90
33793;DHT22;20105;48.764;9.178;2022-11-21T12:33:25;9.30;99.90
33793;DHT22;20105;48.764;9.178;2022-11-21T12:36:04;9.40;99.90
33793;DHT22;20105;48.764;9.178;2022-11-21T12:41:29;9.30;99.90
33793;DHT22;20105;48.764;9.178;2022-11-21T12:50:16;9.20;99.90
33793;DHT22;20105;48.764;9.178;2022-11-21T12:53:07;9.70;99.90
33793;DHT22;20105;48.764;9.178;2022-11-21T12:56:00;9.80;99.90
33793;DHT22;20105;48.764;9.178;2022-11-21T12:58:38;10.30;98.90
33793;DHT22;20105;48.764;9.178;2022-11-21T13:03:53;10.50;99.50
33793;DHT22;20105;48.764;9.178;2022-11-21T13:06:25;10.40;99.70
33793;DHT22;20105;48.764;9.178;2022-11-21T13:08:53;10.60;99.00
33793;DHT22;20105;48.764;9.178;2022-11-21T13:11:41;10.80;98.40
33793;DHT22;20105;48.764;9.178;2022-11-21T13:19:58;9.80;99.90
33793;DHT22;20105;48.764;9.178;2022-11-21T13:27:42;9.90;99.70
33793;DHT22;20105;48.764;9.178;2022-11-21T13:32:46;10.10;99.90
33793;DHT22;20105;48.764;9.178;2022-11-21T14:08:20;9.50;98.80
33793;DHT22;20105;48.764;9.178;2022-11-21T14:10:49;9.20;99.30
33793;DHT22;20105;48.764;9.178;2022-11-21T14:13:38;9.20;98.80
33793;DHT22;20105;48.764;9.178;2022-11-21T14:16:34;9.10;98.20
33793;DHT22;20105;48.764;9.178;2022-11-21T14:19:01;9.20;99.20
33793;DHT22;20105;48.764;9.178;2022-11-21T14:21:29;9.10;98.60
33793;DHT22;20105;48.764;9.178;2022-11-21T14:24:12;9.00;99.50
33793;DHT22;20105;48.764;9.178;2022-11-21T14:26:43;9.00;99.80
33793;DHT22;20105;48.764;9.178;2022-11-21T14:29:38;8.90;99.90
33793;DHT22;20105;48.764;9.178;2022-11-21T14:32:04;8.80;99.90
33793;DHT22;20105;48.764;9.178;2022-11-21T14:34:30;8.70;99.90
33793;DHT22;20105;48.764;9.178;2022-11-21T14:36:58;8.70;99.90
33793;DHT22;20105;48.764;9.178;2022-11-21T14:39:27;8.70;99.90
33793;DHT22;20105;48.764;9.178;2022-11-21T14:41:55;8.70;99.90
33793;DHT22;20105;48.764;9.178;2022-11-21T14:44:22;8.60;99.90
33793;DHT22;20105;48.764;9.178;2022-11-21T14:46:50;8.60;99.90
33793;DHT22;20105;48.764;9.178;2022-11-21T14:51:44;8.50;99.90
33793;DHT22;20105;48.764;9.178;2022-11-21T14:54:16;8.40;99.90
33793;DHT22;20105;48.764;9.178;2022-11-21T14:56:42;8.40;99.90
33793;DHT22;20105;48.764;9.178;2022-11-21T14:59:23;8.40;99.90
33793;DHT22;20105;48.764;9.178;2022-11-21T15:02:01;8.40;99.90
33793;DHT22;20105;48.764;9.178;2022-11-21T15:04:33;8.40;99.90
33793;DHT22;20105;48.764;9.178;2022-11-21T15:06:59;8.40;99.90
33793;DHT22;20105;48.764;9.178;2022-11-21T15:09:25;8.40;99.90
33793;DHT22;20105;48.764;9.178;2022-11-21T15:12:02;8.30;99.90
33793;DHT22;20105;48.764;9.178;2022-11-21T15:14:37;8.30;99.90
33793;DHT22;20105;48.764;9.178;2022-11-21T15:17:07;8.30;99.90
33793;DHT22;20105;48.764;9.178;2022-11-21T15:19:35;8.20;99.90
33793;DHT22;20105;48.764;9.178;2022-11-21T15:22:02;8.20;99.90
33793;DHT22;20105;48.764;9.178;2022-11-21T15:24:41;8.10;99.90
33793;DHT22;20105;48.764;9.178;2022-11-21T15:27:29;8.10;99.90
33793;DHT22;20105;48.764;9.178;2022-11-21T15:35:51;8.00;99.90
33793;DHT22;20105;48.764;9.178;2022-11-21T15:43:51;7.80;99.90
33793;DHT22;20105;48.764;9.178;2022-11-21T15:46:30;7.60;99.90
33793;DHT22;20105;48.764;9.178;2022-11-21T15:48:58;7.60;99.90
33793;DHT22;20105;48.764;9.178;2022-11-21T15:53:51;7.50;99.90
33793;DHT22;20105;48.764;9.178;2022-11-21T15:56:18;7.40;99.90
33793;DHT22;20105;48.764;9.178;2022-11-21T15:58:45;7.30;99.90
33793;DHT22;20105;48.764;9.178;2022-11-21T16:01:29;7.20;99.90
33793;DHT22;20105;48.764;9.178;2022-11-21T16:03:57;7.10;99.90
33793;DHT22;20105;48.764;9.178;2022-11-21T16:06:23;7.00;99.90
33793;DHT22;20105;48.764;9.178;2022-11-21T16:08:49;6.90;99.90
33793;DHT22;20105;48.764;9.178;2022-11-21T16:13:50;6.70;99.90
33793;DHT22;20105;48.764;9.178;2022-11-21T16:16:17;6.60;99.90
33793;DHT22;20105;48.764;9.178;2022-11-21T16:18:43;6.60;99.90
33793;DHT22;20105;48.764;9.178;2022-11-21T16:21:09;6.60;99.90
33793;DHT22;20105;48.764;9.178;2022-11-21T16:23:36;6.50;99.90
33793;DHT22;20105;48.764;9.178;2022-11-21T16:26:03;6.50;99.90
33793;DHT22;20105;48.764;9.178;2022-11-21T16:28:29;6.40;99.90
33793;DHT22;20105;48.764;9.178;2022-11-21T16:30:56;6.30;99.90
33793;DHT22;20105;48.764;9.178;2022-11-21T16:33:22;6.30;99.90
33793;DHT22;20105;48.764;9.178;2022-11-21T16:35:48;6.20;99.90
33793;DHT22;20105;48.764;9.178;2022-11-21T16:38:25;6.10;99.90
33793;DHT22;20105;48.764;9.178;2022-11-21T16:40:59;6.10;99.90
33793;DHT22;20105;48.764;9.178;2022-11-21T16:43:29;6.10;99.90
33793;DHT22;20105;48.764;9.178;2022-11-21T16:45:55;6.10;99.90
33793;DHT22;20105;48.764;9.178;2022-11-21T16:48:22;5.90;99.90
33793;DHT22;20105;48.764;9.178;2022-11-21T16:50:48;5.80;99.90
33793;DHT22;20105;48.764;9.178;2022-11-21T16:53:14;5.70;99.90
33793;DHT22;20105;48.764;9.178;2022-11-21T16:55:41;5.70;99.90
33793;DHT22;20105;48.764;9.178;2022-11-21T16:58:06;5.60;99.90
33793;DHT22;20105;48.764;9.178;2022-11-21T17:00:32;5.60;99.90
33793;DHT22;20105;48.764;9.178;2022-11-21T17:02:57;5.60;99.90
33793;DHT22;20105;48.764;9.178;2022-11-21T17:05:23;5.60;99.90
33793;DHT22;20105;48.764;9.178;2022-11-21T17:07:49;5.60;99.90
33793;DHT22;20105;48.764;9.178;2022-11-21T17:10:15;5.50;99.90
33793;DHT22;20105;48.764;9.178;2022-11-21T17:12:42;5.50;99.90
33793;DHT22;20105;48.764;9.178;2022-11-21T17:15:12;5.40;99.90
33793;DHT22;20105;48.764;9.178;2022-11-21T17:17:39;5.40;99.90
33793;DHT22;20105;48.764;9.178;2022-11-21T17:20:07;5.30;99.90
33793;DHT22;20105;48.764;9.178;2022-11-21T17:22:34;5.30;99.90
33793;DHT22;20105;48.764;9.178;2022-11-21T17:25:00;5.40;99.90
33793;DHT22;20105;48.764;9.178;2022-11-21T17:27:25;5.40;99.90
33793;DHT22;20105;48.764;9.178;2022-11-21T17:29:51;5.40;99.90
33793;DHT22;20105;48.764;9.178;2022-11-21T17:32:17;5.40;99.90
33793;DHT22;20105;48.764;9.178;2022-11-21T17:34:42;5.30;99.90
33793;DHT22;20105;48.764;9.178;2022-11-21T17:37:08;5.30;99.90
33793;DHT22;20105;48.764;9.178;2022-11-21T17:39:34;5.30;99.90
33793;DHT22;20105;48.764;9.178;2022-11-21T17:42:00;5.30;99.90
33793;DHT22;20105;48.764;9.178;2022-11-21T17:44:26;5.30;99.90
33793;DHT22;20105;48.764;9.178;2022-11-21T17:46:52;5.40;99.90
33793;DHT22;20105;48.764;9.178;2022-11-21T17:49:23;5.50;99.90
33793;DHT22;20105;48.764;9.178;2022-11-21T17:51:51;5.60;99.90
33793;DHT22;20105;48.764;9.178;2022-11-21T17:54:16;5.60;99.90
33793;DHT22;20105;48.764;9.178;2022-11-21T17:56:43;5.60;99.90
33793;DHT22;20105;48.764;9.178;2022-11-21T17:59:11;5.60;99.90
33793;DHT22;20105;48.764;9.178;2022-11-21T18:01:37;5.60;99.90
33793;DHT22;20105;48.764;9.178;2022-11-21T18:04:07;5.60;99.90
33793;DHT22;20105;48.764;9.178;2022-11-21T18:06:37;5.60;99.90
33793;DHT22;20105;48.764;9.178;2022-11-21T18:09:04;5.70;99.90
33793;DHT22;20105;48.764;9.178;2022-11-21T18:11:32;5.80;99.90
33793;DHT22;20105;48.764;9.178;2022-11-21T18:13:59;6.00;99.90
33793;DHT22;20105;48.764;9.178;2022-11-21T18:16:26;6.10;99.90
33793;DHT22;20105;48.764;9.178;2022-11-21T18:18:52;6.20;99.90
33793;DHT22;20105;48.764;9.178;2022-11-21T18:21:23;6.20;99.90
33793;DHT22;20105;48.764;9.178;2022-11-21T18:23:51;6.30;99.90
33793;DHT22;20105;48.764;9.178;2022-11-21T18:26:38;6.40;99.90
33793;DHT22;20105;48.764;9.178;2022-11-21T18:29:05;6.30;99.90
33793;DHT22;20105;48.764;9.178;2022-11-21T18:31:31;6.30;99.90